createdAt,value
2023-02-13T00:01:05.595Z,9.07
2023-02-13T00:03:33.344Z,9.08
2023-02-13T00:06:01.079Z,9.07
2023-02-13T00:08:28.822Z,9.05
2023-02-13T00:10:58.221Z,9.06
2023-02-13T00:13:26.121Z,9.05
2023-02-13T00:15:57.682Z,9.05
2023-02-13T00:18:25.472Z,9.05
2023-02-13T00:21:00.988Z,9.04
2023-02-13T00:23:31.127Z,9.05
2023-02-13T00:26:00.638Z,9.04
2023-02-13T00:28:29.029Z,9.05
2023-02-13T00:31:04.190Z,9.04
2023-02-13T00:33:31.980Z,9.03
2023-02-13T00:36:07.922Z,9.02
2023-02-13T00:38:35.915Z,9.02
2023-02-13T00:41:05.801Z,8.97
2023-02-13T00:43:33.665Z,9.00
2023-02-13T00:46:02.228Z,8.98
2023-02-13T00:48:31.594Z,8.98
2023-02-13T00:50:59.757Z,8.97
2023-02-13T00:53:28.567Z,8.97
2023-02-13T00:55:56.411Z,8.96
2023-02-13T00:58:26.170Z,8.95
2023-02-13T01:00:54.870Z,8.94
2023-02-13T01:03:24.003Z,8.91
2023-02-13T01:05:52.524Z,8.94
2023-02-13T01:08:21.683Z,8.94
2023-02-13T01:10:49.865Z,8.92
2023-02-13T01:13:19.482Z,8.91
2023-02-13T01:15:49.887Z,8.88
2023-02-13T01:18:19.596Z,8.88
2023-02-13T01:20:56.464Z,8.85
2023-02-13T01:23:24.358Z,8.84
2023-02-13T01:25:52.160Z,8.82
2023-02-13T01:28:19.925Z,8.81
2023-02-13T01:30:54.155Z,8.80
2023-02-13T01:33:22.372Z,8.80
2023-02-13T01:35:50.146Z,8.77
2023-02-13T01:38:17.937Z,8.76
2023-02-13T01:40:47.550Z,8.74
2023-02-13T01:43:15.757Z,8.74
2023-02-13T01:45:45.936Z,8.74
2023-02-13T01:48:18.369Z,8.74
2023-02-13T01:50:50.396Z,8.74
2023-02-13T01:53:22.970Z,8.72
2023-02-13T01:55:56.340Z,8.71
2023-02-13T01:58:30.005Z,8.70
2023-02-13T02:00:59.472Z,8.69
2023-02-13T02:03:32.740Z,8.69
2023-02-13T02:06:02.962Z,8.67
2023-02-13T02:08:31.996Z,8.67
2023-02-13T02:11:07.965Z,8.68
2023-02-13T02:13:35.701Z,8.66
2023-02-13T02:16:03.744Z,8.59
2023-02-13T02:18:32.834Z,8.63
2023-02-13T02:21:40.640Z,8.62
2023-02-13T02:24:33.654Z,8.61
2023-02-13T02:27:28.410Z,8.61
2023-02-13T02:30:24.617Z,8.60
2023-02-13T02:33:09.679Z,8.59
2023-02-13T02:35:47.588Z,8.58
2023-02-13T02:38:36.181Z,8.57
2023-02-13T02:41:11.320Z,8.55
2023-02-13T02:43:54.829Z,8.55
2023-02-13T02:46:28.764Z,8.54
2023-02-13T02:49:23.151Z,8.54
2023-02-13T02:52:02.997Z,8.51
2023-02-13T02:54:56.415Z,8.50
2023-02-13T02:57:48.228Z,8.48
2023-02-13T03:00:35.252Z,8.47
2023-02-13T03:03:21.121Z,8.47
2023-02-13T03:06:10.802Z,8.45
2023-02-13T03:08:56.726Z,8.40
2023-02-13T03:11:38.383Z,8.42
2023-02-13T03:14:09.559Z,8.43
2023-02-13T03:16:54.603Z,8.40
2023-02-13T03:20:04.698Z,8.40
2023-02-13T03:22:43.466Z,8.39
2023-02-13T03:25:19.079Z,8.38
2023-02-13T03:28:09.381Z,8.36
2023-02-13T03:30:48.205Z,8.36
2023-02-13T03:33:29.083Z,8.32
2023-02-13T03:36:23.293Z,8.31
2023-02-13T03:38:59.354Z,8.34
2023-02-13T03:41:31.463Z,8.32
2023-02-13T03:44:12.184Z,8.30
2023-02-13T03:46:43.150Z,8.27
2023-02-13T03:49:35.182Z,8.27
2023-02-13T03:52:07.458Z,8.28
2023-02-13T03:55:01.248Z,8.26
2023-02-13T03:57:50.588Z,8.26
2023-02-13T04:00:20.325Z,8.24
2023-02-13T04:02:55.965Z,8.23
2023-02-13T04:05:27.258Z,8.20
2023-02-13T04:07:55.087Z,8.21
2023-02-13T04:10:28.716Z,8.21
2023-02-13T04:13:04.233Z,8.20
2023-02-13T04:15:37.697Z,8.15
2023-02-13T04:18:11.158Z,8.16
2023-02-13T04:20:40.062Z,8.14
2023-02-13T04:23:09.469Z,8.13
2023-02-13T04:25:41.213Z,8.12
2023-02-13T04:28:09.127Z,8.10
2023-02-13T04:30:36.953Z,8.10
2023-02-13T04:33:04.932Z,8.08
2023-02-13T04:35:32.798Z,8.07
2023-02-13T04:38:00.565Z,8.05
2023-02-13T04:40:28.284Z,8.06
2023-02-13T04:42:57.600Z,7.98
2023-02-13T04:45:25.320Z,8.03
2023-02-13T04:47:53.942Z,8.00
2023-02-13T04:50:22.558Z,7.98
2023-02-13T04:52:55.039Z,7.97
2023-02-13T04:55:23.165Z,7.97
2023-02-13T04:57:53.676Z,7.95
2023-02-13T05:00:24.062Z,7.95
2023-02-13T05:02:52.407Z,7.91
2023-02-13T05:05:20.622Z,7.92
2023-02-13T05:07:48.484Z,7.91
2023-02-13T05:10:16.311Z,7.90
2023-02-13T05:12:44.064Z,7.89
2023-02-13T05:15:12.203Z,7.87
2023-02-13T05:17:41.278Z,7.85
2023-02-13T05:20:09.620Z,7.84
2023-02-13T05:22:54.683Z,7.82
2023-02-13T05:25:22.767Z,7.81
2023-02-13T05:27:50.499Z,7.79
2023-02-13T05:30:18.399Z,7.78
2023-02-13T05:32:47.440Z,7.78
2023-02-13T05:35:15.192Z,7.76
2023-02-13T05:37:42.905Z,7.76
2023-02-13T05:40:11.755Z,7.75
2023-02-13T05:42:39.469Z,7.74
2023-02-13T05:45:08.033Z,7.72
2023-02-13T05:47:35.731Z,7.72
2023-02-13T05:50:05.134Z,7.71
2023-02-13T05:52:32.839Z,7.70
2023-02-13T05:55:00.569Z,7.70
2023-02-13T05:57:28.283Z,7.67
2023-02-13T05:59:55.984Z,7.67
2023-02-13T06:02:24.900Z,7.66
2023-02-13T06:04:52.696Z,7.68
2023-02-13T06:07:21.792Z,7.77
2023-02-13T06:09:49.499Z,7.90
2023-02-13T06:12:17.183Z,8.05
2023-02-13T06:14:44.915Z,8.16
2023-02-13T06:17:12.599Z,8.28
2023-02-13T06:19:40.332Z,8.45
2023-02-13T06:22:08.089Z,8.60
2023-02-13T06:24:37.188Z,8.60
2023-02-13T06:27:05.005Z,8.62
2023-02-13T06:29:33.044Z,8.68
2023-02-13T06:32:00.817Z,8.67
2023-02-13T06:34:28.570Z,8.57
2023-02-13T06:36:56.246Z,8.47
2023-02-13T06:39:23.967Z,8.36
2023-02-13T06:41:53.031Z,8.25
2023-02-13T06:44:20.749Z,8.16
2023-02-13T06:46:48.427Z,8.08
2023-02-13T06:49:16.188Z,8.03
2023-02-13T06:51:43.941Z,7.97
2023-02-13T06:54:11.673Z,7.92
2023-02-13T06:56:39.404Z,7.89
2023-02-13T06:59:08.660Z,7.86
2023-02-13T07:01:36.428Z,7.82
2023-02-13T07:04:04.172Z,7.79
2023-02-13T07:06:33.477Z,7.76
2023-02-13T07:09:02.176Z,7.73
2023-02-13T07:11:29.931Z,7.68
2023-02-13T07:13:57.648Z,7.67
2023-02-13T07:16:26.764Z,7.65
2023-02-13T07:18:54.472Z,7.53
2023-02-13T07:21:22.229Z,7.51
2023-02-13T07:23:49.979Z,7.51
2023-02-13T07:26:17.758Z,7.50
2023-02-13T07:28:45.934Z,7.47
2023-02-13T07:31:13.779Z,7.49
2023-02-13T07:33:42.967Z,7.48
2023-02-13T07:36:10.828Z,7.47
2023-02-13T07:38:38.585Z,7.44
2023-02-13T07:41:06.423Z,7.45
2023-02-13T07:43:34.410Z,7.43
2023-02-13T07:46:03.479Z,7.42
2023-02-13T07:48:31.731Z,7.41
2023-02-13T07:51:04.077Z,7.42
2023-02-13T07:53:31.831Z,7.40
2023-02-13T07:55:59.766Z,7.39
2023-02-13T07:58:27.701Z,7.39
2023-02-13T08:00:55.492Z,7.38
2023-02-13T08:03:23.220Z,7.38
2023-02-13T08:05:50.979Z,7.39
2023-02-13T08:08:20.063Z,7.36
2023-02-13T08:11:05.279Z,7.34
2023-02-13T08:13:33.656Z,7.33
2023-02-13T08:16:01.497Z,7.33
2023-02-13T08:18:29.310Z,7.32
2023-02-13T08:20:57.111Z,7.32
2023-02-13T08:23:26.857Z,7.31
2023-02-13T08:25:55.824Z,7.31
2023-02-13T08:28:23.825Z,7.31
2023-02-13T08:30:51.579Z,7.30
2023-02-13T08:33:19.364Z,7.31
2023-02-13T08:35:47.122Z,7.32
2023-02-13T08:38:14.824Z,7.32
2023-02-13T08:40:43.982Z,7.23
2023-02-13T08:43:11.674Z,7.32
2023-02-13T08:45:39.445Z,7.31
2023-02-13T08:48:07.571Z,7.32
2023-02-13T08:50:37.007Z,7.42
2023-02-13T08:53:05.396Z,7.58
2023-02-13T08:55:33.147Z,7.73
2023-02-13T08:58:02.927Z,7.88
2023-02-13T09:00:31.204Z,8.05
2023-02-13T09:03:02.410Z,8.23
2023-02-13T09:05:31.701Z,8.34
2023-02-13T09:08:01.276Z,8.34
2023-02-13T09:10:29.008Z,8.29
2023-02-13T09:12:56.895Z,8.19
2023-02-13T09:15:25.973Z,8.10
2023-02-13T09:17:53.785Z,8.03
2023-02-13T09:20:21.578Z,7.95
2023-02-13T09:22:49.738Z,7.87
2023-02-13T09:25:17.628Z,7.89
2023-02-13T09:27:45.861Z,7.87
2023-02-13T09:30:22.991Z,7.86
2023-02-13T09:32:53.881Z,7.82
2023-02-13T09:35:23.333Z,7.79
2023-02-13T09:37:51.091Z,7.78
2023-02-13T09:40:22.438Z,7.75
2023-02-13T09:42:51.013Z,7.76
2023-02-13T09:45:22.424Z,7.75
2023-02-13T09:47:53.238Z,7.83
2023-02-13T09:50:25.179Z,7.99
2023-02-13T09:52:54.909Z,8.15
2023-02-13T09:55:25.422Z,8.32
2023-02-13T09:57:59.617Z,8.54
2023-02-13T10:00:33.810Z,8.64
2023-02-13T10:03:20.219Z,8.75
2023-02-13T10:05:57.874Z,8.78
2023-02-13T10:08:43.486Z,8.74
2023-02-13T10:11:29.238Z,8.68
2023-02-13T10:14:05.597Z,8.63
2023-02-13T10:16:38.152Z,8.57
2023-02-13T10:19:17.888Z,8.51
2023-02-13T10:21:53.058Z,8.59
2023-02-13T10:24:31.120Z,8.74
2023-02-13T10:27:01.994Z,8.91
2023-02-13T10:29:57.284Z,9.08
2023-02-13T10:32:35.801Z,9.27
2023-02-13T10:35:17.638Z,9.33
2023-02-13T10:37:50.884Z,9.24
2023-02-13T10:40:19.767Z,9.15
2023-02-13T10:42:54.545Z,8.99
2023-02-13T10:45:41.355Z,8.92
2023-02-13T10:48:25.412Z,8.84
2023-02-13T10:51:05.744Z,8.79
2023-02-13T10:53:50.072Z,8.75
2023-02-13T10:56:26.543Z,8.75
2023-02-13T10:59:16.606Z,8.74
2023-02-13T11:01:51.687Z,8.74
2023-02-13T11:04:21.148Z,8.67
2023-02-13T11:06:57.033Z,8.74
2023-02-13T11:09:26.266Z,8.74
2023-02-13T11:11:55.178Z,8.74
2023-02-13T11:14:24.785Z,8.73
2023-02-13T11:16:56.994Z,8.73
2023-02-13T11:19:30.171Z,8.73
2023-02-13T11:22:03.217Z,8.74
2023-02-13T11:24:32.341Z,8.76
2023-02-13T11:27:04.592Z,8.76
2023-02-13T11:29:34.807Z,8.77
2023-02-13T11:32:20.082Z,8.79
2023-02-13T11:34:50.595Z,8.80
2023-02-13T11:37:23.344Z,8.81
2023-02-13T11:39:52.657Z,8.81
2023-02-13T11:42:28.878Z,8.83
2023-02-13T11:45:01.227Z,8.85
2023-02-13T11:47:40.658Z,8.86
2023-02-13T11:50:22.411Z,8.89
2023-02-13T11:53:00.075Z,8.88
2023-02-13T11:55:31.996Z,8.91
2023-02-13T11:58:01.811Z,8.95
2023-02-13T12:00:39.961Z,8.98
2023-02-13T12:03:27.178Z,9.03
2023-02-13T12:06:04.180Z,9.05
2023-02-13T12:08:37.017Z,9.06
2023-02-13T12:11:17.972Z,9.09
2023-02-13T12:13:46.836Z,9.10
2023-02-13T12:16:31.205Z,9.14
2023-02-13T12:19:04.559Z,9.17
2023-02-13T12:21:48.267Z,9.20
2023-02-13T12:24:30.396Z,9.21
2023-02-13T12:27:07.112Z,9.24
2023-02-13T12:30:00.531Z,9.27
2023-02-13T12:32:39.671Z,9.31
2023-02-13T12:35:36.567Z,9.32
2023-02-13T12:38:12.985Z,9.36
2023-02-13T12:41:04.416Z,9.38
2023-02-13T12:44:00.639Z,9.40
2023-02-13T12:46:34.460Z,9.42
2023-02-13T12:49:16.477Z,9.40
2023-02-13T12:51:51.402Z,9.50
2023-02-13T12:54:41.160Z,9.52
2023-02-13T12:57:22.590Z,9.50
2023-02-13T13:00:07.154Z,9.55
2023-02-13T13:03:00.493Z,9.51
2023-02-13T13:05:40.865Z,9.60
2023-02-13T13:08:23.904Z,9.63
2023-02-13T13:11:17.081Z,9.67
2023-02-13T13:14:00.756Z,9.71
2023-02-13T13:16:42.890Z,9.72
2023-02-13T13:19:19.777Z,9.74
2023-02-13T13:21:53.504Z,9.74
2023-02-13T13:24:35.514Z,9.77
2023-02-13T13:27:04.328Z,9.78
2023-02-13T13:29:41.072Z,9.76
2023-02-13T13:32:12.370Z,9.78
2023-02-13T13:34:40.744Z,9.82
2023-02-13T13:37:15.668Z,9.85
2023-02-13T13:39:52.539Z,9.89
2023-02-13T13:42:26.898Z,9.93
2023-02-13T13:45:10.830Z,9.95
2023-02-13T13:47:52.425Z,9.98
2023-02-13T13:50:23.502Z,10.03
2023-02-13T13:53:11.603Z,10.04
2023-02-13T13:56:06.660Z,10.05
2023-02-13T13:58:43.583Z,10.05
2023-02-13T14:01:22.349Z,10.09
2023-02-13T14:03:51.532Z,10.11
2023-02-13T14:06:21.226Z,10.12
2023-02-13T14:09:08.547Z,10.14
2023-02-13T14:11:37.603Z,10.17
2023-02-13T14:14:56.062Z,10.18
2023-02-13T14:17:53.206Z,10.20
2023-02-13T14:20:35.392Z,10.21
2023-02-13T14:23:27.927Z,10.23
2023-02-13T14:26:31.569Z,10.24
2023-02-13T14:29:28.220Z,10.26
2023-02-13T14:32:15.839Z,10.27
2023-02-13T14:34:54.060Z,10.27
2023-02-13T14:37:30.203Z,10.28
2023-02-13T14:40:36.956Z,10.31
2023-02-13T14:43:29.958Z,10.31
2023-02-13T14:46:00.051Z,10.31
2023-02-13T14:48:38.522Z,10.34
2023-02-13T14:51:15.477Z,10.35
2023-02-13T14:53:51.382Z,10.38
2023-02-13T14:56:22.547Z,10.39
2023-02-13T14:58:55.252Z,10.42
2023-02-13T15:01:31.316Z,10.37
2023-02-13T15:04:05.655Z,10.45
2023-02-13T15:06:39.500Z,10.53
2023-02-13T15:09:20.518Z,10.70
2023-02-13T15:11:48.300Z,10.87
2023-02-13T15:14:25.664Z,11.06
2023-02-13T15:17:00.617Z,11.27
2023-02-13T15:19:28.476Z,11.45
2023-02-13T15:22:00.378Z,11.59
2023-02-13T15:24:31.937Z,11.76
2023-02-13T15:27:03.091Z,11.98
2023-02-13T15:29:44.280Z,12.03
2023-02-13T15:32:21.208Z,11.96
2023-02-13T15:34:49.973Z,11.84
2023-02-13T15:37:24.609Z,11.69
2023-02-13T15:39:52.353Z,11.54
2023-02-13T15:42:20.229Z,11.44
2023-02-13T15:44:51.002Z,11.38
2023-02-13T15:47:24.316Z,11.30
2023-02-13T15:49:52.504Z,11.29
2023-02-13T15:52:25.875Z,11.23
2023-02-13T15:54:56.079Z,11.17
2023-02-13T15:57:26.798Z,11.14
2023-02-13T15:59:56.647Z,11.03
2023-02-13T16:02:29.523Z,11.07
2023-02-13T16:04:57.724Z,11.04
2023-02-13T16:07:26.852Z,11.02
2023-02-13T16:10:17.931Z,10.98
2023-02-13T16:12:49.749Z,10.94
2023-02-13T16:15:20.985Z,10.94
2023-02-13T16:17:49.721Z,10.92
2023-02-13T16:20:21.676Z,10.90
2023-02-13T16:22:53.885Z,10.88
2023-02-13T16:25:25.843Z,10.86
2023-02-13T16:27:56.591Z,10.85
2023-02-13T16:30:30.757Z,10.83
2023-02-13T16:33:13.064Z,10.84
2023-02-13T16:35:43.946Z,10.83
2023-02-13T16:38:35.466Z,10.81
2023-02-13T16:41:05.890Z,10.80
2023-02-13T16:43:52.568Z,10.79
2023-02-13T16:46:35.005Z,10.76
2023-02-13T16:49:24.691Z,10.75
2023-02-13T16:51:57.753Z,10.74
2023-02-13T16:54:31.637Z,10.71
2023-02-13T16:57:02.636Z,10.71
2023-02-13T16:59:49.558Z,10.71
2023-02-13T17:02:23.114Z,10.70
2023-02-13T17:04:53.818Z,10.82
2023-02-13T17:07:25.035Z,10.96
2023-02-13T17:10:00.783Z,11.15
2023-02-13T17:12:30.784Z,11.32
2023-02-13T17:14:59.819Z,11.49
2023-02-13T17:17:30.745Z,11.63
2023-02-13T17:19:58.954Z,11.80
2023-02-13T17:22:33.128Z,11.91
2023-02-13T17:25:04.850Z,11.92
2023-02-13T17:27:32.639Z,11.86
2023-02-13T17:30:00.445Z,11.77
2023-02-13T17:32:29.328Z,11.63
2023-02-13T17:34:57.241Z,11.51
2023-02-13T17:37:26.485Z,11.40
2023-02-13T17:39:54.835Z,11.33
2023-02-13T17:42:26.579Z,11.24
2023-02-13T17:44:55.436Z,11.20
2023-02-13T17:47:24.300Z,11.12
2023-02-13T17:49:55.127Z,11.09
2023-02-13T17:52:27.906Z,11.02
2023-02-13T17:54:55.698Z,10.99
2023-02-13T17:57:25.060Z,10.95
2023-02-13T17:59:52.843Z,10.91
2023-02-13T18:02:22.479Z,10.87
2023-02-13T18:04:51.000Z,10.88
2023-02-13T18:07:21.199Z,11.00
2023-02-13T18:09:48.985Z,11.15
2023-02-13T18:12:19.180Z,11.32
2023-02-13T18:14:48.510Z,11.48
2023-02-13T18:17:17.419Z,11.65
2023-02-13T18:19:45.380Z,11.69
2023-02-13T18:22:13.753Z,11.65
2023-02-13T18:24:42.949Z,11.55
2023-02-13T18:27:12.422Z,11.41
2023-02-13T18:29:40.426Z,11.33
2023-02-13T18:32:10.889Z,11.22
2023-02-13T18:34:39.825Z,11.15
2023-02-13T18:37:09.430Z,11.10
2023-02-13T18:39:37.222Z,11.04
2023-02-13T18:42:05.430Z,11.01
2023-02-13T18:44:33.423Z,10.95
2023-02-13T18:47:01.454Z,10.90
2023-02-13T18:49:30.542Z,10.86
2023-02-13T18:51:59.173Z,10.84
2023-02-13T18:54:26.917Z,10.80
2023-02-13T18:56:54.702Z,10.76
2023-02-13T18:59:23.052Z,10.72
2023-02-13T19:01:51.230Z,10.69
2023-02-13T19:04:19.095Z,10.66
2023-02-13T19:06:48.217Z,10.64
2023-02-13T19:09:15.930Z,10.74
2023-02-13T19:11:44.640Z,10.84
2023-02-13T19:14:14.302Z,11.03
2023-02-13T19:16:42.533Z,11.18
2023-02-13T19:19:10.282Z,11.32
2023-02-13T19:21:39.879Z,11.47
2023-02-13T19:24:11.918Z,11.62
2023-02-13T19:26:39.646Z,11.74
2023-02-13T19:29:07.359Z,11.79
2023-02-13T19:31:35.516Z,11.75
2023-02-13T19:34:05.595Z,11.64
2023-02-13T19:36:33.559Z,11.47
2023-02-13T19:39:03.364Z,11.33
2023-02-13T19:41:33.020Z,11.21
2023-02-13T19:44:01.168Z,11.11
2023-02-13T19:46:30.456Z,11.01
2023-02-13T19:48:58.992Z,10.94
2023-02-13T19:51:29.407Z,10.87
2023-02-13T19:53:58.117Z,10.82
2023-02-13T19:56:27.270Z,10.76
2023-02-13T19:58:56.750Z,10.71
2023-02-13T20:01:27.503Z,10.68
2023-02-13T20:03:55.547Z,10.62
2023-02-13T20:06:25.601Z,10.50
2023-02-13T20:08:53.842Z,10.54
2023-02-13T20:11:23.060Z,10.49
2023-02-13T20:13:55.476Z,10.47
2023-02-13T20:16:24.979Z,10.42
2023-02-13T20:18:53.215Z,10.39
2023-02-13T20:21:21.377Z,10.34
2023-02-13T20:23:51.447Z,10.31
2023-02-13T20:26:19.732Z,10.29
2023-02-13T20:28:48.236Z,10.26
2023-02-13T20:31:17.771Z,10.24
2023-02-13T20:33:48.133Z,10.22
2023-02-13T20:36:18.275Z,10.19
2023-02-13T20:38:46.054Z,10.18
2023-02-13T20:41:15.950Z,10.15
2023-02-13T20:43:44.340Z,10.13
2023-02-13T20:46:13.398Z,10.11
2023-02-13T20:48:41.572Z,10.08
2023-02-13T20:51:13.459Z,10.08
2023-02-13T20:53:42.231Z,10.06
2023-02-13T20:56:12.094Z,10.03
2023-02-13T20:58:41.010Z,10.01
2023-02-13T21:01:13.312Z,9.98
2023-02-13T21:03:41.600Z,9.96
2023-02-13T21:06:11.929Z,9.93
2023-02-13T21:08:39.740Z,9.92
2023-02-13T21:11:08.948Z,9.92
2023-02-13T21:13:37.111Z,9.89
2023-02-13T21:16:07.702Z,9.88
2023-02-13T21:18:35.492Z,9.86
2023-02-13T21:21:03.517Z,9.84
2023-02-13T21:23:33.310Z,9.83
2023-02-13T21:26:03.122Z,9.80
2023-02-13T21:28:30.980Z,9.80
2023-02-13T21:30:59.063Z,9.79
2023-02-13T21:33:26.907Z,9.77
2023-02-13T21:36:01.224Z,9.75
2023-02-13T21:38:29.042Z,9.72
2023-02-13T21:41:05.336Z,9.73
2023-02-13T21:43:37.467Z,9.72
2023-02-13T21:46:09.472Z,9.72
2023-02-13T21:48:37.251Z,9.70
2023-02-13T21:51:08.358Z,9.70
2023-02-13T21:53:36.334Z,9.68
2023-02-13T21:56:06.515Z,9.66
2023-02-13T21:58:34.374Z,9.67
2023-02-13T22:01:02.525Z,9.65
2023-02-13T22:03:30.527Z,9.65
2023-02-13T22:05:58.245Z,9.63
2023-02-13T22:08:25.978Z,9.64
2023-02-13T22:10:54.820Z,9.62
2023-02-13T22:13:24.297Z,9.60
2023-02-13T22:16:00.000Z,9.59
2023-02-13T22:18:27.817Z,9.58
2023-02-13T22:20:55.992Z,9.57
2023-02-13T22:23:23.853Z,9.54
2023-02-13T22:25:52.020Z,9.53
2023-02-13T22:28:19.735Z,9.52
2023-02-13T22:30:48.924Z,9.51
2023-02-13T22:33:16.785Z,9.48
2023-02-13T22:35:44.654Z,9.43
2023-02-13T22:38:12.372Z,9.44
2023-02-13T22:40:40.351Z,9.41
2023-02-13T22:43:08.420Z,9.41
2023-02-13T22:45:36.954Z,9.38
2023-02-13T22:48:07.339Z,9.36
2023-02-13T22:50:36.223Z,9.37
2023-02-13T22:53:03.992Z,9.36
2023-02-13T22:55:33.481Z,9.31
2023-02-13T22:58:01.222Z,9.31
2023-02-13T23:00:28.934Z,9.28
2023-02-13T23:02:56.665Z,9.28
2023-02-13T23:05:25.750Z,9.25
2023-02-13T23:07:53.498Z,9.24
2023-02-13T23:10:21.596Z,9.24
2023-02-13T23:12:49.907Z,9.21
2023-02-13T23:15:17.620Z,9.22
2023-02-13T23:18:02.738Z,9.20
2023-02-13T23:20:31.942Z,9.18
2023-02-13T23:22:59.700Z,9.17
2023-02-13T23:25:27.431Z,9.13
2023-02-13T23:27:56.745Z,9.12
2023-02-13T23:30:25.499Z,9.11
2023-02-13T23:32:53.231Z,9.09
2023-02-13T23:35:21.527Z,9.10
2023-02-13T23:37:50.661Z,9.08
2023-02-13T23:40:19.166Z,9.06
2023-02-13T23:42:47.069Z,9.04
2023-02-13T23:45:14.838Z,9.02
2023-02-13T23:47:42.512Z,9.01
2023-02-13T23:50:10.923Z,8.99
2023-02-13T23:52:38.662Z,8.97
2023-02-13T23:55:08.324Z,8.96
2023-02-13T23:57:36.369Z,8.96
